Time;durP1;ratioP1;P1;durP2;ratioP2;P2;SDS_P1;SDS_P2;PMS_P1;PMS_P2;Temp;Humidity;BMP_temperature;BMP_pressure;BME280_temperature;BME280_humidity;BME280_pressure;Samples;Min_cycle;Max_cycle;Signal;HPM_P1;HPM_P2
2023/03/14 00:01:48;;;;;;;0.45;0.40;;;;;;;;;;4978374;28;20050;-81
2023/03/14 00:04:14;;;;;;;0.30;0.30;;;;;;;;;;4980804;28;20439;-79
2023/03/14 00:06:40;;;;;;;0.60;0.60;;;;;;;;;;4969329;28;20034;-79
2023/03/14 00:09:09;;;;;;;0.45;0.45;;;;;;;;;;4974872;28;20027;-80
2023/03/14 00:11:35;;;;;;;0.47;0.47;;;;;;;;;;4972170;28;20023;-80
2023/03/14 00:14:02;;;;;;;0.45;0.43;;;;;;;;;;4976877;28;20065;-80
2023/03/14 00:16:28;;;;;;;0.30;0.30;;;;;;;;;;4973188;28;21285;-80
2023/03/14 00:18:54;;;;;;;0.50;0.40;;;;;;;;;;4969674;28;20035;-80
2023/03/14 00:21:20;;;;;;;1.27;0.40;;;;;;;;;;4969133;28;20023;-80
2023/03/14 00:23:49;;;;;;;0.40;0.40;;;;;;;;;;4975829;28;20030;-80
2023/03/14 00:26:16;;;;;;;0.60;0.43;;;;;;;;;;4967293;28;20027;-80
2023/03/14 00:28:45;;;;;;;0.30;0.30;;;;;;;;;;4964559;28;20031;-80
2023/03/14 00:31:12;;;;;;;0.43;0.43;;;;;;;;;;4966853;28;20073;-80
2023/03/14 00:33:38;;;;;;;0.38;0.38;;;;;;;;;;4966641;28;20158;-80
2023/03/14 00:36:08;;;;;;;0.20;0.20;;;;;;;;;;4965452;28;20502;-80
2023/03/14 00:38:34;;;;;;;0.40;0.40;;;;;;;;;;4965775;28;20405;-80
2023/03/14 00:41:03;;;;;;;0.30;0.30;;;;;;;;;;4965311;28;20038;-80
2023/03/14 00:43:29;;;;;;;0.30;0.30;;;;;;;;;;4959900;28;20042;-80
2023/03/14 00:45:55;;;;;;;0.35;0.35;;;;;;;;;;4963977;28;20019;-80
2023/03/14 00:48:21;;;;;;;0.57;0.30;;;;;;;;;;4965810;28;20026;-80
2023/03/14 00:50:47;;;;;;;0.28;0.28;;;;;;;;;;4965455;28;20054;-79
2023/03/14 00:53:13;;;;;;;0.93;0.22;;;;;;;;;;4965325;28;20054;-79
2023/03/14 00:55:40;;;;;;;0.30;0.30;;;;;;;;;;4964787;28;20070;-80
2023/03/14 00:58:06;;;;;;;0.50;0.30;;;;;;;;;;4964587;28;20031;-81
2023/03/14 01:00:33;;;;;;;0.25;0.25;;;;;;;;;;4963489;28;20168;-81
2023/03/14 01:02:59;;;;;;;0.25;0.25;;;;;;;;;;4971136;28;20409;-81
2023/03/14 01:05:25;;;;;;;3.33;0.55;;;;;;;;;;4961725;28;20381;-82
2023/03/14 01:07:50;;;;;;;1.95;0.60;;;;;;;;;;4959135;28;20486;-80
2023/03/14 01:10:17;;;;;;;0.30;0.22;;;;;;;;;;4981020;28;20109;-79
2023/03/14 01:12:43;;;;;;;0.70;0.47;;;;;;;;;;4967759;28;20037;-80
2023/03/14 01:15:09;;;;;;;0.20;0.20;;;;;;;;;;4979771;28;20033;-80
2023/03/14 01:17:37;;;;;;;0.20;0.20;;;;;;;;;;4964119;28;20062;-81
2023/03/14 01:20:04;;;;;;;0.80;0.35;;;;;;;;;;4970695;28;20039;-80
2023/03/14 01:22:30;;;;;;;0.38;0.30;;;;;;;;;;4971493;28;20101;-80
2023/03/14 01:24:56;;;;;;;0.30;0.30;;;;;;;;;;4966284;28;20501;-80
2023/03/14 01:27:22;;;;;;;0.25;0.25;;;;;;;;;;4966562;28;20050;-80
2023/03/14 01:29:48;;;;;;;1.95;0.40;;;;;;;;;;4961343;28;20027;-80
2023/03/14 01:32:14;;;;;;;1.38;0.90;;;;;;;;;;4967605;28;20186;-80
2023/03/14 01:34:40;;;;;;;0.68;0.40;;;;;;;;;;4965907;28;20026;-80
2023/03/14 01:37:07;;;;;;;0.30;0.20;;;;;;;;;;4966197;28;20037;-80
2023/03/14 01:39:33;;;;;;;0.65;0.65;;;;;;;;;;4969425;28;20037;-80
2023/03/14 01:42:00;;;;;;;0.40;0.40;;;;;;;;;;4965610;28;20817;-79
2023/03/14 01:44:26;;;;;;;0.30;0.30;;;;;;;;;;4975115;28;20070;-80
2023/03/14 01:46:55;;;;;;;2.50;0.30;;;;;;;;;;4969447;28;20690;-80
2023/03/14 01:49:29;;;;;;;1.23;0.50;;;;;;;;;;4975267;28;20026;-79
2023/03/14 01:52:04;;;;;;;0.75;0.50;;;;;;;;;;4964912;28;20030;-80
2023/03/14 01:54:39;;;;;;;0.30;0.30;;;;;;;;;;4960342;28;20049;-79
2023/03/14 01:57:08;;;;;;;4.70;0.43;;;;;;;;;;4965591;28;20046;-80
2023/03/14 01:59:35;;;;;;;0.30;0.30;;;;;;;;;;4947467;28;20046;-80
2023/03/14 02:02:01;;;;;;;0.43;0.32;;;;;;;;;;4970075;28;20036;-80
2023/03/14 02:04:29;;;;;;;0.40;0.30;;;;;;;;;;4971096;28;21872;-80
2023/03/14 02:06:59;;;;;;;0.30;0.30;;;;;;;;;;4964298;28;20121;-79
2023/03/14 02:09:25;;;;;;;0.30;0.30;;;;;;;;;;4965897;28;20046;-80
2023/03/14 02:11:51;;;;;;;0.20;0.15;;;;;;;;;;4972035;28;20031;-80
2023/03/14 02:14:28;;;;;;;0.65;0.60;;;;;;;;;;4968617;28;20097;-80
2023/03/14 02:16:54;;;;;;;0.17;0.17;;;;;;;;;;4968294;28;20023;-79
2023/03/14 02:19:27;;;;;;;0.20;0.20;;;;;;;;;;4968629;28;20073;-79
2023/03/14 02:22:25;;;;;;;0.50;0.50;;;;;;;;;;4973121;28;20100;-79
2023/03/14 02:24:54;;;;;;;0.55;0.50;;;;;;;;;;4935187;28;20095;-79
2023/03/14 02:27:20;;;;;;;0.20;0.20;;;;;;;;;;4967072;28;20078;-79
2023/03/14 02:29:50;;;;;;;0.38;0.28;;;;;;;;;;4967335;28;20027;-79
2023/03/14 02:32:17;;;;;;;0.30;0.30;;;;;;;;;;4969770;28;20030;-81
2023/03/14 02:34:43;;;;;;;1.70;0.35;;;;;;;;;;4962971;28;20050;-81
2023/03/14 02:37:10;;;;;;;0.30;0.30;;;;;;;;;;4970227;28;20023;-81
2023/03/14 02:39:38;;;;;;;1.05;0.43;;;;;;;;;;4967376;28;20090;-80
2023/03/14 02:42:04;;;;;;;0.32;0.32;;;;;;;;;;4968738;28;20125;-80
2023/03/14 02:44:30;;;;;;;0.20;0.20;;;;;;;;;;4967622;28;20093;-81
2023/03/14 02:46:56;;;;;;;0.30;0.30;;;;;;;;;;4966632;28;20109;-80
2023/03/14 02:49:26;;;;;;;0.88;0.60;;;;;;;;;;4969244;28;20127;-80
2023/03/14 02:51:52;;;;;;;0.40;0.40;;;;;;;;;;4967896;28;20023;-80
2023/03/14 02:54:19;;;;;;;0.32;0.22;;;;;;;;;;4967688;28;20023;-79
2023/03/14 02:56:45;;;;;;;2.15;0.50;;;;;;;;;;4967734;28;20036;-80
2023/03/14 02:59:11;;;;;;;0.40;0.40;;;;;;;;;;4965012;28;20026;-79
2023/03/14 03:01:37;;;;;;;0.30;0.30;;;;;;;;;;4967155;28;20031;-79
2023/03/14 03:04:03;;;;;;;0.85;0.20;;;;;;;;;;4972549;28;20027;-80
2023/03/14 03:06:29;;;;;;;0.20;0.20;;;;;;;;;;4978910;28;20023;-79
2023/03/14 03:08:55;;;;;;;0.88;0.40;;;;;;;;;;4970215;28;20034;-79
2023/03/14 03:11:21;;;;;;;0.68;0.20;;;;;;;;;;4969237;28;20023;-79
2023/03/14 03:13:47;;;;;;;0.30;0.30;;;;;;;;;;4964438;28;20422;-80
2023/03/14 03:16:14;;;;;;;2.13;0.47;;;;;;;;;;4967182;28;20030;-80
2023/03/14 03:18:40;;;;;;;0.30;0.30;;;;;;;;;;4968038;28;20481;-79
2023/03/14 03:21:08;;;;;;;0.30;0.25;;;;;;;;;;4969265;28;20043;-80
2023/03/14 03:23:34;;;;;;;1.02;0.63;;;;;;;;;;4976677;28;20038;-80
2023/03/14 03:26:02;;;;;;;0.30;0.30;;;;;;;;;;4959598;28;20034;-80
2023/03/14 03:28:28;;;;;;;0.15;0.10;;;;;;;;;;4972702;28;20478;-80
2023/03/14 03:30:54;;;;;;;0.10;0.10;;;;;;;;;;4976442;28;20088;-80
2023/03/14 03:33:21;;;;;;;0.40;0.40;;;;;;;;;;4972148;28;20030;-80
2023/03/14 03:35:48;;;;;;;0.40;0.40;;;;;;;;;;4974803;28;20023;-79
2023/03/14 03:38:14;;;;;;;0.22;0.20;;;;;;;;;;4964801;28;20051;-80
2023/03/14 03:40:40;;;;;;;0.50;0.30;;;;;;;;;;4966461;28;20659;-80
2023/03/14 03:43:06;;;;;;;0.65;0.30;;;;;;;;;;4963950;28;20443;-80
2023/03/14 03:45:32;;;;;;;0.30;0.30;;;;;;;;;;4968052;28;20038;-80
2023/03/14 03:47:58;;;;;;;0.40;0.30;;;;;;;;;;4966651;28;20031;-80
2023/03/14 03:50:24;;;;;;;0.30;0.30;;;;;;;;;;4968535;28;20022;-80
2023/03/14 03:52:50;;;;;;;0.40;0.40;;;;;;;;;;4969610;28;20035;-79
2023/03/14 03:55:16;;;;;;;0.95;0.52;;;;;;;;;;4970988;28;20026;-80
2023/03/14 03:57:42;;;;;;;0.35;0.30;;;;;;;;;;4973893;28;20031;-81
2023/03/14 04:00:11;;;;;;;2.25;0.30;;;;;;;;;;4970371;28;20034;-81
2023/03/14 04:02:37;;;;;;;0.25;0.20;;;;;;;;;;4966045;28;20038;-81
2023/03/14 04:05:03;;;;;;;0.25;0.20;;;;;;;;;;4970833;28;20034;-80
2023/03/14 04:07:32;;;;;;;0.52;0.28;;;;;;;;;;4963729;28;20041;-81
2023/03/14 04:09:58;;;;;;;0.20;0.15;;;;;;;;;;4960664;28;20393;-82
2023/03/14 04:12:23;;;;;;;1.13;0.40;;;;;;;;;;4956501;28;20027;-80
2023/03/14 04:14:49;;;;;;;1.30;0.30;;;;;;;;;;4964135;28;20035;-80
2023/03/14 04:17:15;;;;;;;0.22;0.22;;;;;;;;;;4962605;28;20022;-81
2023/03/14 04:19:42;;;;;;;1.30;0.40;;;;;;;;;;4961752;28;20410;-82
2023/03/14 04:22:08;;;;;;;0.45;0.45;;;;;;;;;;4964028;28;20181;-81
2023/03/14 04:24:34;;;;;;;0.20;0.20;;;;;;;;;;4976328;28;20461;-81
2023/03/14 04:27:00;;;;;;;0.30;0.30;;;;;;;;;;4970298;28;20039;-81
2023/03/14 04:29:26;;;;;;;0.90;0.70;;;;;;;;;;4974174;28;20023;-81
2023/03/14 04:31:52;;;;;;;0.50;0.35;;;;;;;;;;4969673;28;20034;-81
2023/03/14 04:34:18;;;;;;;0.20;0.20;;;;;;;;;;4968781;28;20034;-81
2023/03/14 04:36:44;;;;;;;0.90;0.65;;;;;;;;;;4967750;28;20133;-81
2023/03/14 04:39:10;;;;;;;0.28;0.22;;;;;;;;;;4969315;28;20039;-82
2023/03/14 04:41:36;;;;;;;1.52;0.30;;;;;;;;;;4963956;28;20065;-82
2023/03/14 04:44:02;;;;;;;0.30;0.25;;;;;;;;;;4973097;28;20019;-81
2023/03/14 04:46:28;;;;;;;1.20;0.30;;;;;;;;;;4965076;28;20662;-82
2023/03/14 04:48:55;;;;;;;0.20;0.20;;;;;;;;;;4974813;28;20027;-80
2023/03/14 04:51:23;;;;;;;0.75;0.40;;;;;;;;;;4968566;28;20019;-81
2023/03/14 04:53:49;;;;;;;0.30;0.30;;;;;;;;;;4960708;28;20385;-81
2023/03/14 04:56:15;;;;;;;0.30;0.30;;;;;;;;;;4965336;28;20037;-81
2023/03/14 04:58:41;;;;;;;0.30;0.30;;;;;;;;;;4957259;28;20036;-81
2023/03/14 05:01:07;;;;;;;0.60;0.35;;;;;;;;;;4965035;28;20053;-81
2023/03/14 05:03:33;;;;;;;0.38;0.38;;;;;;;;;;4969579;28;20057;-80
2023/03/14 05:06:00;;;;;;;0.30;0.30;;;;;;;;;;4973425;28;20031;-80
2023/03/14 05:08:26;;;;;;;0.20;0.20;;;;;;;;;;4964413;28;20031;-80
2023/03/14 05:10:55;;;;;;;0.28;0.28;;;;;;;;;;4962606;28;20360;-79
2023/03/14 05:13:22;;;;;;;0.17;0.17;;;;;;;;;;4967363;28;20501;-80
2023/03/14 05:15:48;;;;;;;1.23;0.40;;;;;;;;;;4975078;28;20046;-80
2023/03/14 05:18:14;;;;;;;0.90;0.50;;;;;;;;;;4973747;28;20022;-82
2023/03/14 05:20:40;;;;;;;0.40;0.40;;;;;;;;;;4966464;28;20546;-82
2023/03/14 05:23:06;;;;;;;0.28;0.28;;;;;;;;;;4973575;28;20023;-80
2023/03/14 05:25:32;;;;;;;0.30;0.30;;;;;;;;;;4970792;28;20026;-80
2023/03/14 05:27:58;;;;;;;0.38;0.30;;;;;;;;;;4970960;28;20029;-80
2023/03/14 05:30:24;;;;;;;0.30;0.30;;;;;;;;;;4969360;28;20027;-81
2023/03/14 05:32:50;;;;;;;0.80;0.40;;;;;;;;;;4961579;28;20042;-80
2023/03/14 05:35:18;;;;;;;0.20;0.20;;;;;;;;;;4974198;28;20030;-79
2023/03/14 05:37:44;;;;;;;0.52;0.35;;;;;;;;;;4964540;28;20030;-81
2023/03/14 05:40:10;;;;;;;0.30;0.30;;;;;;;;;;4964559;28;20057;-81
2023/03/14 05:42:36;;;;;;;0.35;0.35;;;;;;;;;;4962790;28;20077;-81
2023/03/14 05:45:02;;;;;;;0.22;0.22;;;;;;;;;;4967618;28;20056;-83
2023/03/14 05:47:28;;;;;;;0.40;0.40;;;;;;;;;;4969877;28;20038;-81
2023/03/14 05:49:54;;;;;;;0.25;0.17;;;;;;;;;;4969546;28;20029;-82
2023/03/14 05:52:20;;;;;;;0.20;0.20;;;;;;;;;;4969484;28;20031;-79
2023/03/14 05:54:46;;;;;;;0.28;0.28;;;;;;;;;;4972496;28;20031;-74
2023/03/14 05:57:13;;;;;;;3.00;0.40;;;;;;;;;;4969509;28;20466;-74
2023/03/14 05:59:39;;;;;;;0.30;0.30;;;;;;;;;;4970314;28;20689;-74
2023/03/14 06:02:05;;;;;;;0.13;0.13;;;;;;;;;;4968963;28;20042;-74
2023/03/14 06:04:31;;;;;;;0.30;0.30;;;;;;;;;;4968286;28;20032;-75
2023/03/14 06:06:57;;;;;;;0.50;0.50;;;;;;;;;;4968984;28;20573;-74
2023/03/14 06:09:23;;;;;;;0.20;0.20;;;;;;;;;;4969880;28;20025;-75
2023/03/14 06:11:49;;;;;;;0.93;0.57;;;;;;;;;;4969746;28;20108;-74
2023/03/14 06:14:15;;;;;;;1.13;0.43;;;;;;;;;;4969586;28;20133;-81
2023/03/14 06:16:41;;;;;;;1.17;0.80;;;;;;;;;;4968624;28;20118;-81
2023/03/14 06:19:07;;;;;;;0.80;0.40;;;;;;;;;;4967740;28;20050;-81
2023/03/14 06:21:33;;;;;;;0.30;0.30;;;;;;;;;;4966775;28;20015;-83
2023/03/14 06:23:59;;;;;;;0.25;0.25;;;;;;;;;;4966427;28;20035;-81
2023/03/14 06:26:25;;;;;;;0.63;0.45;;;;;;;;;;4967104;28;20026;-81
2023/03/14 06:28:51;;;;;;;0.20;0.20;;;;;;;;;;4969501;28;20158;-80
2023/03/14 06:31:17;;;;;;;0.22;0.20;;;;;;;;;;4969486;28;20393;-80
2023/03/14 06:33:43;;;;;;;0.32;0.20;;;;;;;;;;4969534;28;20114;-80
2023/03/14 06:36:09;;;;;;;1.15;0.65;;;;;;;;;;4969385;28;20114;-81
2023/03/14 06:38:35;;;;;;;0.30;0.30;;;;;;;;;;4968522;28;20106;-80
2023/03/14 06:41:08;;;;;;;0.73;0.20;;;;;;;;;;4969163;28;20343;-81
2023/03/14 06:43:34;;;;;;;0.45;0.30;;;;;;;;;;4969366;28;20038;-82
2023/03/14 06:46:00;;;;;;;0.57;0.57;;;;;;;;;;4968940;28;20580;-81
2023/03/14 06:48:26;;;;;;;0.20;0.20;;;;;;;;;;4969352;28;20046;-80
2023/03/14 06:50:52;;;;;;;0.22;0.22;;;;;;;;;;4969289;28;20114;-80
2023/03/14 06:53:18;;;;;;;2.50;0.30;;;;;;;;;;4969316;28;20031;-81
2023/03/14 06:55:45;;;;;;;0.40;0.40;;;;;;;;;;4982078;28;20089;-80
2023/03/14 06:58:11;;;;;;;0.50;0.15;;;;;;;;;;4969114;28;20034;-80
2023/03/14 07:00:37;;;;;;;1.10;0.50;;;;;;;;;;4968509;28;20078;-80
2023/03/14 07:03:06;;;;;;;0.45;0.40;;;;;;;;;;4968940;28;20627;-82
2023/03/14 07:05:32;;;;;;;0.17;0.17;;;;;;;;;;4968763;28;20158;-83
2023/03/14 07:07:58;;;;;;;0.70;0.30;;;;;;;;;;4968103;28;20669;-83
2023/03/14 07:10:24;;;;;;;0.20;0.20;;;;;;;;;;4967867;28;20034;-82
2023/03/14 07:12:52;;;;;;;2.05;0.35;;;;;;;;;;4966252;28;20600;-82
2023/03/14 07:15:18;;;;;;;1.10;0.38;;;;;;;;;;4966523;28;20038;-81
2023/03/14 07:17:44;;;;;;;0.82;0.40;;;;;;;;;;4968886;28;20101;-81
2023/03/14 07:20:10;;;;;;;2.08;0.47;;;;;;;;;;4968742;28;20042;-81
2023/03/14 07:22:36;;;;;;;0.30;0.20;;;;;;;;;;4967955;28;20069;-82
2023/03/14 07:25:02;;;;;;;0.95;0.17;;;;;;;;;;4967498;28;20023;-81
2023/03/14 07:27:28;;;;;;;0.22;0.20;;;;;;;;;;4968905;28;20023;-82
2023/03/14 07:29:54;;;;;;;0.65;0.20;;;;;;;;;;4967985;28;20085;-82
2023/03/14 07:32:20;;;;;;;0.10;0.10;;;;;;;;;;4962195;28;20027;-81
2023/03/14 07:34:46;;;;;;;0.35;0.30;;;;;;;;;;4963560;28;20027;-81
2023/03/14 07:37:12;;;;;;;0.10;0.10;;;;;;;;;;4962926;28;20441;-82
2023/03/14 07:39:38;;;;;;;0.30;0.30;;;;;;;;;;4967667;28;20035;-84
2023/03/14 07:42:04;;;;;;;0.40;0.38;;;;;;;;;;4967164;28;20054;-80
2023/03/14 07:44:30;;;;;;;2.00;0.88;;;;;;;;;;4968343;28;20035;-74
2023/03/14 07:46:56;;;;;;;0.25;0.25;;;;;;;;;;4967128;28;20026;-76
2023/03/14 07:49:22;;;;;;;0.20;0.20;;;;;;;;;;4967559;28;20042;-75
2023/03/14 07:51:48;;;;;;;0.28;0.22;;;;;;;;;;4968718;28;20019;-75
2023/03/14 07:54:14;;;;;;;0.13;0.13;;;;;;;;;;4967594;28;20197;-75
2023/03/14 07:56:40;;;;;;;0.32;0.25;;;;;;;;;;4966847;28;20632;-75
2023/03/14 07:59:07;;;;;;;0.68;0.30;;;;;;;;;;4968448;28;20035;-75
2023/03/14 08:01:33;;;;;;;3.30;0.40;;;;;;;;;;4966780;28;20093;-75
2023/03/14 08:03:59;;;;;;;3.25;0.20;;;;;;;;;;4966321;28;20031;-75
2023/03/14 08:06:25;;;;;;;0.22;0.22;;;;;;;;;;4966955;28;20486;-75
2023/03/14 08:08:50;;;;;;;0.30;0.30;;;;;;;;;;4968425;28;20434;-75
2023/03/14 08:11:16;;;;;;;0.75;0.40;;;;;;;;;;4967804;28;20027;-75
2023/03/14 08:13:49;;;;;;;3.95;0.30;;;;;;;;;;4968051;28;20023;-75
2023/03/14 08:16:15;;;;;;;0.85;0.47;;;;;;;;;;4966440;28;20035;-75
2023/03/14 08:18:41;;;;;;;0.98;0.75;;;;;;;;;;4968049;28;20042;-74
2023/03/14 08:21:07;;;;;;;0.35;0.30;;;;;;;;;;4963050;28;20456;-75
2023/03/14 08:23:33;;;;;;;0.57;0.40;;;;;;;;;;4969960;28;20130;-76
2023/03/14 08:25:59;;;;;;;0.38;0.38;;;;;;;;;;4971701;28;20023;-75
2023/03/14 08:28:30;;;;;;;0.90;0.30;;;;;;;;;;4970427;28;20117;-75
2023/03/14 08:30:56;;;;;;;0.30;0.30;;;;;;;;;;4971481;28;20014;-75
2023/03/14 08:33:24;;;;;;;0.47;0.40;;;;;;;;;;4969157;28;20038;-75
2023/03/14 08:36:08;;;;;;;1.25;0.30;;;;;;;;;;4967730;28;20034;-77
2023/03/14 08:38:34;;;;;;;0.30;0.30;;;;;;;;;;4964931;28;20540;-80
2023/03/14 08:41:04;;;;;;;0.20;0.20;;;;;;;;;;4969406;28;20045;-78
2023/03/14 08:43:30;;;;;;;0.38;0.38;;;;;;;;;;4971478;28;20042;-78
2023/03/14 08:46:00;;;;;;;0.47;0.40;;;;;;;;;;4969298;28;20027;-80
2023/03/14 08:48:30;;;;;;;1.30;0.43;;;;;;;;;;4971143;28;20126;-81
2023/03/14 08:50:57;;;;;;;0.28;0.28;;;;;;;;;;4965597;28;20122;-86
2023/03/14 08:53:23;;;;;;;0.43;0.43;;;;;;;;;;4970014;28;20035;-79
2023/03/14 08:55:54;;;;;;;0.40;0.40;;;;;;;;;;4971318;28;20031;-86
2023/03/14 08:58:22;;;;;;;0.30;0.30;;;;;;;;;;4969984;28;20070;-81
2023/03/14 09:00:48;;;;;;;0.50;0.43;;;;;;;;;;4963463;28;20027;-85
2023/03/14 09:03:16;;;;;;;0.50;0.50;;;;;;;;;;4967743;28;20043;-88
2023/03/14 09:05:42;;;;;;;1.73;0.57;;;;;;;;;;4964664;28;20030;-85
2023/03/14 09:08:08;;;;;;;5.10;0.80;;;;;;;;;;4966178;28;20023;-82
2023/03/14 09:10:34;;;;;;;0.85;0.50;;;;;;;;;;4965480;28;20178;-80
2023/03/14 09:13:00;;;;;;;0.88;0.32;;;;;;;;;;4967208;28;20554;-80
2023/03/14 09:15:26;;;;;;;0.90;0.40;;;;;;;;;;4968307;28;20026;-80
2023/03/14 09:17:53;;;;;;;0.40;0.40;;;;;;;;;;4969285;28;20041;-80
2023/03/14 09:20:19;;;;;;;0.63;0.60;;;;;;;;;;4970692;28;20022;-80
2023/03/14 09:22:45;;;;;;;0.77;0.50;;;;;;;;;;4968933;28;20452;-81
2023/03/14 09:25:11;;;;;;;0.38;0.38;;;;;;;;;;4970760;28;20019;-80
2023/03/14 09:27:37;;;;;;;1.85;0.30;;;;;;;;;;4970884;28;20080;-80
2023/03/14 09:30:04;;;;;;;1.27;0.40;;;;;;;;;;4968275;28;20039;-77
2023/03/14 09:32:31;;;;;;;3.40;0.38;;;;;;;;;;4982015;28;20089;-79
2023/03/14 09:34:57;;;;;;;0.52;0.35;;;;;;;;;;4968903;28;20042;-77
2023/03/14 09:37:23;;;;;;;0.50;0.50;;;;;;;;;;4969044;28;20031;-78
2023/03/14 09:39:49;;;;;;;0.73;0.40;;;;;;;;;;4967753;28;20030;-77
2023/03/14 09:42:17;;;;;;;0.30;0.30;;;;;;;;;;4974062;28;20649;-78
2023/03/14 09:45:05;;;;;;;0.57;0.30;;;;;;;;;;4967093;28;20113;-77
2023/03/14 09:47:31;;;;;;;2.10;0.30;;;;;;;;;;4970488;28;20106;-77
2023/03/14 09:49:59;;;;;;;0.88;0.35;;;;;;;;;;4968714;28;20508;-77
2023/03/14 09:52:29;;;;;;;1.60;0.30;;;;;;;;;;4977009;28;20576;-78
2023/03/14 09:55:15;;;;;;;1.02;0.40;;;;;;;;;;4959598;28;20110;-78
2023/03/14 09:57:42;;;;;;;0.50;0.50;;;;;;;;;;4970499;28;20393;-79
2023/03/14 10:00:22;;;;;;;0.13;0.13;;;;;;;;;;4967799;28;20096;-79
2023/03/14 10:02:54;;;;;;;0.90;0.22;;;;;;;;;;4969080;28;20554;-80
2023/03/14 10:05:21;;;;;;;0.30;0.25;;;;;;;;;;4968736;28;20022;-77
2023/03/14 10:07:47;;;;;;;0.50;0.20;;;;;;;;;;4968363;28;20386;-80
2023/03/14 10:10:18;;;;;;;3.47;0.30;;;;;;;;;;4968960;28;20363;-80
2023/03/14 10:12:46;;;;;;;0.35;0.20;;;;;;;;;;4969443;28;20043;-77
2023/03/14 10:15:14;;;;;;;1.58;0.50;;;;;;;;;;4969037;28;20035;-77
2023/03/14 10:17:40;;;;;;;0.60;0.40;;;;;;;;;;4969023;28;20118;-76
2023/03/14 10:20:10;;;;;;;0.40;0.40;;;;;;;;;;4969705;28;20039;-81
2023/03/14 10:22:36;;;;;;;1.17;0.32;;;;;;;;;;4959409;28;20074;-80
2023/03/14 10:25:05;;;;;;;0.50;0.40;;;;;;;;;;4950922;28;20062;-81
2023/03/14 10:27:32;;;;;;;0.40;0.40;;;;;;;;;;4955388;28;20030;-80
2023/03/14 10:30:06;;;;;;;1.02;0.30;;;;;;;;;;4959178;28;20489;-80
2023/03/14 10:32:37;;;;;;;2.30;0.30;;;;;;;;;;4957166;28;20115;-80
2023/03/14 10:35:19;;;;;;;0.43;0.43;;;;;;;;;;4958385;28;20042;-80
2023/03/14 10:37:54;;;;;;;2.67;0.50;;;;;;;;;;4963500;28;20038;-80
2023/03/14 10:40:21;;;;;;;0.20;0.20;;;;;;;;;;4959214;28;20118;-79
2023/03/14 10:42:50;;;;;;;0.43;0.30;;;;;;;;;;4966083;28;20054;-80
2023/03/14 10:45:26;;;;;;;0.30;0.30;;;;;;;;;;4973872;28;20058;-79
2023/03/14 10:47:52;;;;;;;1.15;0.32;;;;;;;;;;4968015;28;20076;-79
2023/03/14 10:50:28;;;;;;;0.60;0.20;;;;;;;;;;4958770;28;20470;-79
2023/03/14 10:52:55;;;;;;;0.25;0.25;;;;;;;;;;4960330;28;21142;-79
2023/03/14 10:55:21;;;;;;;1.25;0.70;;;;;;;;;;4961529;28;20023;-79
2023/03/14 10:57:50;;;;;;;1.95;0.20;;;;;;;;;;4963538;28;20030;-79
2023/03/14 11:00:17;;;;;;;0.75;0.32;;;;;;;;;;4968798;28;20027;-80
2023/03/14 11:02:49;;;;;;;0.38;0.38;;;;;;;;;;4957657;28;20183;-80
2023/03/14 11:05:38;;;;;;;1.60;0.10;;;;;;;;;;4968074;28;20043;-79
2023/03/14 11:08:15;;;;;;;0.30;0.30;;;;;;;;;;4958539;28;20023;-79
2023/03/14 11:10:46;;;;;;;0.57;0.20;;;;;;;;;;4967486;28;20039;-79
2023/03/14 11:13:12;;;;;;;0.20;0.20;;;;;;;;;;4964219;28;20038;-79
2023/03/14 11:15:38;;;;;;;0.30;0.30;;;;;;;;;;4964287;28;20089;-80
2023/03/14 11:18:23;;;;;;;0.50;0.50;;;;;;;;;;4954891;28;20027;-79
2023/03/14 11:20:56;;;;;;;0.25;0.25;;;;;;;;;;4961913;28;20070;-80
2023/03/14 11:23:23;;;;;;;0.60;0.35;;;;;;;;;;4957649;28;20117;-79
2023/03/14 11:25:59;;;;;;;1.23;0.20;;;;;;;;;;4954468;28;20035;-80
2023/03/14 11:28:34;;;;;;;0.65;0.10;;;;;;;;;;4951450;28;20039;-75
2023/03/14 11:31:06;;;;;;;1.08;0.60;;;;;;;;;;4964893;28;20169;-75
2023/03/14 11:33:58;;;;;;;1.38;0.40;;;;;;;;;;4962401;28;20225;-75
2023/03/14 11:36:38;;;;;;;0.30;0.30;;;;;;;;;;4924416;28;20077;-75
2023/03/14 11:39:15;;;;;;;2.85;0.70;;;;;;;;;;4964437;28;20039;-75
2023/03/14 11:41:42;;;;;;;0.65;0.30;;;;;;;;;;4965507;28;20524;-74
2023/03/14 11:44:16;;;;;;;0.80;0.50;;;;;;;;;;4967613;28;20027;-75
2023/03/14 11:46:45;;;;;;;2.03;0.45;;;;;;;;;;4967826;28;20102;-75
2023/03/14 11:49:31;;;;;;;1.55;0.38;;;;;;;;;;4967681;28;20497;-75
2023/03/14 11:52:00;;;;;;;2.35;0.47;;;;;;;;;;4963834;28;20505;-76
2023/03/14 11:54:46;;;;;;;1.00;0.35;;;;;;;;;;4967777;28;20027;-76
2023/03/14 11:57:14;;;;;;;1.27;0.65;;;;;;;;;;4950317;28;20159;-76
2023/03/14 12:00:12;;;;;;;1.10;0.32;;;;;;;;;;4971614;28;20093;-76
2023/03/14 12:02:46;;;;;;;0.98;0.50;;;;;;;;;;4970133;28;20047;-77
2023/03/14 12:05:15;;;;;;;0.60;0.40;;;;;;;;;;4970243;28;20125;-76
2023/03/14 12:08:04;;;;;;;0.75;0.40;;;;;;;;;;4971517;28;20031;-76
2023/03/14 12:10:30;;;;;;;0.55;0.30;;;;;;;;;;4970134;28;20033;-75
2023/03/14 12:12:58;;;;;;;1.67;0.30;;;;;;;;;;4970553;28;20027;-75
2023/03/14 12:15:24;;;;;;;0.85;0.30;;;;;;;;;;4968652;28;20027;-75
2023/03/14 12:17:56;;;;;;;0.75;0.30;;;;;;;;;;4969442;28;20574;-75
2023/03/14 12:20:24;;;;;;;1.00;0.43;;;;;;;;;;4970898;28;20037;-75
2023/03/14 12:22:52;;;;;;;0.40;0.40;;;;;;;;;;4971048;28;20027;-74
2023/03/14 12:25:19;;;;;;;1.58;0.60;;;;;;;;;;4970987;28;20026;-75
2023/03/14 12:27:50;;;;;;;1.15;0.45;;;;;;;;;;4969095;28;20030;-75
2023/03/14 12:30:20;;;;;;;0.63;0.50;;;;;;;;;;4970994;28;20030;-75
2023/03/14 12:33:06;;;;;;;2.60;0.60;;;;;;;;;;4971056;28;20034;-75
2023/03/14 12:35:36;;;;;;;1.08;0.40;;;;;;;;;;4970920;28;20026;-75
2023/03/14 12:38:03;;;;;;;1.30;0.60;;;;;;;;;;4969136;28;20030;-75
2023/03/14 12:40:35;;;;;;;0.55;0.52;;;;;;;;;;4969796;28;20537;-74
2023/03/14 12:43:03;;;;;;;0.70;0.70;;;;;;;;;;4970576;28;20019;-75
2023/03/14 12:45:36;;;;;;;0.63;0.28;;;;;;;;;;4970724;28;20143;-75
2023/03/14 12:48:09;;;;;;;0.55;0.43;;;;;;;;;;4969423;28;20175;-75
2023/03/14 12:50:54;;;;;;;0.52;0.40;;;;;;;;;;4969159;28;20034;-75
2023/03/14 12:53:39;;;;;;;1.13;0.68;;;;;;;;;;4970786;28;20122;-75
2023/03/14 12:56:32;;;;;;;0.63;0.40;;;;;;;;;;4970856;28;20503;-75
2023/03/14 12:59:06;;;;;;;1.52;0.40;;;;;;;;;;4966324;28;20121;-75
2023/03/14 13:01:33;;;;;;;0.40;0.40;;;;;;;;;;4967862;28;20085;-76
2023/03/14 13:04:04;;;;;;;0.40;0.35;;;;;;;;;;4969220;28;20033;-75
2023/03/14 13:06:51;;;;;;;0.95;0.60;;;;;;;;;;4969985;28;20749;-75
2023/03/14 13:09:29;;;;;;;0.20;0.20;;;;;;;;;;4970374;28;20027;-75
2023/03/14 13:11:55;;;;;;;0.55;0.50;;;;;;;;;;4968484;28;20026;-75
2023/03/14 13:14:21;;;;;;;0.47;0.20;;;;;;;;;;4970593;28;20375;-74
2023/03/14 13:16:47;;;;;;;1.60;0.60;;;;;;;;;;4970441;28;20168;-75
2023/03/14 13:19:19;;;;;;;0.43;0.30;;;;;;;;;;4970448;28;20584;-75
2023/03/14 13:21:45;;;;;;;0.70;0.43;;;;;;;;;;4967736;28;20015;-75
2023/03/14 13:24:25;;;;;;;0.70;0.50;;;;;;;;;;4968254;28;20027;-75
2023/03/14 13:26:54;;;;;;;0.20;0.20;;;;;;;;;;4960511;28;20042;-74
2023/03/14 13:29:21;;;;;;;0.40;0.30;;;;;;;;;;4971860;28;20045;-85
2023/03/14 13:31:48;;;;;;;0.90;0.25;;;;;;;;;;4970321;28;20252;-84
2023/03/14 13:34:14;;;;;;;0.30;0.30;;;;;;;;;;4970198;28;20445;-78
2023/03/14 13:36:40;;;;;;;2.05;0.70;;;;;;;;;;4975273;28;20034;-83
2023/03/14 13:39:18;;;;;;;1.20;0.47;;;;;;;;;;4971491;28;20059;-79
2023/03/14 13:41:50;;;;;;;0.43;0.30;;;;;;;;;;4969911;28;20062;-80
2023/03/14 13:44:19;;;;;;;0.90;0.50;;;;;;;;;;4966075;28;20055;-81
2023/03/14 13:46:45;;;;;;;0.75;0.40;;;;;;;;;;4972358;28;20030;-83
2023/03/14 13:49:13;;;;;;;0.30;0.30;;;;;;;;;;4970095;28;20089;-85
2023/03/14 13:51:40;;;;;;;0.77;0.20;;;;;;;;;;4968996;28;20079;-84
2023/03/14 13:54:16;;;;;;;0.45;0.32;;;;;;;;;;4973105;28;20073;-83
2023/03/14 13:56:42;;;;;;;0.20;0.20;;;;;;;;;;4966359;28;20249;-81
2023/03/14 13:59:24;;;;;;;0.70;0.43;;;;;;;;;;4967027;28;20079;-81
2023/03/14 14:01:50;;;;;;;;;;;;;;;;;;4969946;28;20054;-81
2023/03/14 14:04:18;;;;;;;0.77;0.65;;;;;;;;;;4973126;28;20026;-83
2023/03/14 14:06:50;;;;;;;0.30;0.30;;;;;;;;;;4954864;28;20090;-82
2023/03/14 14:09:17;;;;;;;0.57;0.40;;;;;;;;;;4965101;28;20023;-80
2023/03/14 14:12:04;;;;;;;0.20;0.20;;;;;;;;;;4967285;28;20109;-80
2023/03/14 14:14:30;;;;;;;0.20;0.20;;;;;;;;;;4963589;28;20398;-80
2023/03/14 14:16:58;;;;;;;0.38;0.30;;;;;;;;;;4969580;28;20027;-80
2023/03/14 14:19:28;;;;;;;0.52;0.52;;;;;;;;;;4966232;28;20038;-81
2023/03/14 14:21:54;;;;;;;0.52;0.35;;;;;;;;;;4939730;28;20025;-80
2023/03/14 14:24:21;;;;;;;0.20;0.20;;;;;;;;;;4965394;28;20054;-80
2023/03/14 14:27:01;;;;;;;3.20;0.45;;;;;;;;;;4970976;28;20049;-80
2023/03/14 14:29:31;;;;;;;0.20;0.20;;;;;;;;;;4965002;28;20699;-75
2023/03/14 14:32:01;;;;;;;0.30;0.30;;;;;;;;;;4967188;28;20034;-86
2023/03/14 14:34:27;;;;;;;0.32;0.32;;;;;;;;;;4967101;28;20030;-84
2023/03/14 14:36:54;;;;;;;1.77;0.80;;;;;;;;;;4965867;28;20271;-79
2023/03/14 14:39:22;;;;;;;0.10;0.10;;;;;;;;;;4963097;28;20027;-79
2023/03/14 14:41:49;;;;;;;0.20;0.20;;;;;;;;;;4965730;28;20050;-80
2023/03/14 14:44:17;;;;;;;0.45;0.40;;;;;;;;;;4965717;28;20062;-77
2023/03/14 14:46:43;;;;;;;0.73;0.47;;;;;;;;;;4979207;28;20452;-80
2023/03/14 14:49:11;;;;;;;0.75;0.40;;;;;;;;;;4965796;28;20026;-82
2023/03/14 14:51:44;;;;;;;0.73;0.50;;;;;;;;;;4970227;28;20428;-77